Hauptseite
METAR-TAF:

METAR-TAF

Flughäfen :

Logroño, Spanien

Flughafen Logroño

Breite: 42-27N, Länge: 002-20W, Höhe: 353 m

Beobachtung

Neuester Wetterbericht von vor 46 Minuten, um 11:00 UTC
Wind 9 kt aus West
Temperatur 12°C
Luftfeuchtigkeit 82%
Luftdruck 1030 hPa
Sichtweite 10 km oder mehr
Leicht bewölkt in der Höhe von 3000 ft

METAR: LELO 231100Z 28009KT 9999 FEW030 12/09 Q1030

Zeit: 12:46 (11:46 UTC)

Prognose

Neuester Wetterbericht von vor 46 Minuten, um 11:00 UTC
Gültige Prognose vom 23 um 12 UTC bis 23 um 21 UTC
Wind 7 kt aus West
Sichtweite 10 km oder mehr
Leicht bewölkt in der Höhe von 3000 ft

TAF: LELO 231100Z 2312/2321 27007KT 9999 FEW030

Wetterbeobachtungen und Prognosen von mehr als 4000 Flughäfen (METAR und TAF Bericht).

Die verfügbaren Stationen werden durch gelbe und rote Markierungen auf der Karte dargestellt.

Führen Sie die Maus auf sie, um den Namen der Station zu sehen.

Darauf klicken, um die Beobachtung von Wetterbeobachtungen und Prognosen zu sehen.

Um die Karte zu ändern : klicken Sie auf den grünen Tasten mit einem schwarzen Kreuz Zum Vergrößern, auf den grünen Button mit einem Gedankenstrich zu verkleinern, oder auf die grünen Pfeile für benachbarte Karten.


METAR-TAF: